Terminal Aerodrome Forecast
Issued by NWS

Home | Current Version | Previous Version | Text Only | Print | Product List | Glossary On
Versions: 1 2 3 4 5 6 7 8 9 10 11 12 13 14 15 16 17 18 19 20 21 22 23 24 25
000
FTUS41 KGYX 020702 AAA
TAFLEB
TAF AMD
KLEB 020702Z 0207/0306 00000KT 5SM BR OVC001
     FM020900 00000KT 1/4SM FG VV001
     FM021330 20005KT P6SM BKN060
     FM030300 24005KT 5SM -SHRA BR BKN030=

USA.gov is the U.S. government's official web portal to all federal, state and local government web resources and services.